Time;durP1;ratioP1;P1;durP2;ratioP2;P2;SDS_P1;SDS_P2;PMS_P1;PMS_P2;Temp;Humidity;BMP_temperature;BMP_pressure;BME280_temperature;BME280_humidity;BME280_pressure;Samples;Min_cycle;Max_cycle;Signal;HPM_P1;HPM_P2
2022/08/19 00:00:08;;;;;;;;;;;14.50;99.90;;;;;;5026559;28;19925;-81
2022/08/19 00:02:33;;;;;;;;;;;14.50;99.90;;;;;;5000379;28;19921;-80
2022/08/19 00:04:59;;;;;;;;;;;14.50;99.90;;;;;;5034126;28;19979;-82
2022/08/19 00:07:25;;;;;;;;;;;14.50;99.90;;;;;;5034560;28;20093;-82
2022/08/19 00:09:50;;;;;;;;;;;14.50;99.90;;;;;;5017101;28;20175;-82
2022/08/19 00:12:16;;;;;;;;;;;14.50;99.90;;;;;;5034861;28;19925;-81
2022/08/19 00:14:43;;;;;;;;;;;14.40;99.90;;;;;;5001687;28;19995;-81
2022/08/19 00:17:08;;;;;;;;;;;14.40;99.90;;;;;;5001006;28;20390;-81
2022/08/19 00:19:35;;;;;;;;;;;14.50;99.90;;;;;;5017925;28;19925;-80
2022/08/19 00:22:04;;;;;;;;;;;14.50;99.90;;;;;;5002439;28;19927;-81
2022/08/19 00:24:31;;;;;;;;;;;14.50;99.90;;;;;;5018089;28;19928;-81
2022/08/19 00:26:56;;;;;;;;;;;14.50;99.90;;;;;;5001554;28;19925;-81
2022/08/19 00:29:23;;;;;;;;;;;14.60;99.90;;;;;;5034727;28;19928;-81
2022/08/19 00:31:49;;;;;;;;;;;14.50;99.90;;;;;;5016621;28;20004;-81
2022/08/19 00:34:15;;;;;;;;;;;14.40;99.90;;;;;;5017075;28;19990;-81
2022/08/19 00:36:41;;;;;;;;;;;14.40;99.90;;;;;;5016357;28;20378;-81
2022/08/19 00:39:07;;;;;;;;;;;14.40;99.90;;;;;;5034943;28;19932;-81
2022/08/19 00:41:33;;;;;;;;;;;14.40;99.90;;;;;;5035194;28;19927;-81
2022/08/19 00:44:02;;;;;;;;;;;14.40;99.90;;;;;;5015974;28;20277;-81
2022/08/19 00:46:27;;;;;;;;;;;14.40;99.90;;;;;;5030814;28;20369;-81
2022/08/19 00:48:54;;;;;;;;;;;14.40;99.90;;;;;;5015575;28;19928;-80
2022/08/19 00:51:20;;;;;;;;;;;14.20;99.90;;;;;;5014355;28;20489;-81
2022/08/19 00:53:45;;;;;;;;;;;14.20;99.90;;;;;;4997509;28;19928;-82
2022/08/19 00:56:11;;;;;;;;;;;14.20;99.90;;;;;;5031405;28;19928;-82
2022/08/19 00:58:36;;;;;;;;;;;14.20;99.90;;;;;;4997347;28;19929;-81
2022/08/19 01:01:03;;;;;;;;;;;14.10;99.90;;;;;;4997449;28;20016;-81
2022/08/19 01:03:29;;;;;;;;;;;14.10;99.90;;;;;;5013455;28;19978;-81
2022/08/19 01:05:55;;;;;;;;;;;14.10;99.90;;;;;;4996125;28;20382;-81
2022/08/19 01:08:20;;;;;;;;;;;14.10;99.90;;;;;;5012984;28;20732;-80
2022/08/19 01:10:48;;;;;;;;;;;14.00;99.90;;;;;;4996653;28;19976;-80
2022/08/19 01:13:18;;;;;;;;;;;13.90;99.90;;;;;;5030046;28;20463;-80
2022/08/19 01:15:46;;;;;;;;;;;13.90;99.90;;;;;;5030397;28;19925;-81
2022/08/19 01:18:14;;;;;;;;;;;14.00;99.90;;;;;;5012949;28;19932;-80
2022/08/19 01:20:40;;;;;;;;;;;13.90;99.90;;;;;;5012860;28;19972;-80
2022/08/19 01:23:06;;;;;;;;;;;13.90;99.90;;;;;;5030524;28;19960;-80
2022/08/19 01:25:36;;;;;;;;;;;13.90;99.90;;;;;;4996297;28;20510;-80
2022/08/19 01:28:02;;;;;;;;;;;13.80;99.90;;;;;;5012327;28;20382;-80
2022/08/19 01:30:31;;;;;;;;;;;13.80;99.90;;;;;;5030293;28;19921;-80
2022/08/19 01:32:58;;;;;;;;;;;13.80;99.90;;;;;;5029452;28;19928;-80
2022/08/19 01:35:24;;;;;;;;;;;13.70;99.90;;;;;;5012680;28;19928;-80
2022/08/19 01:37:52;;;;;;;;;;;13.70;99.90;;;;;;4996210;28;19929;-80
2022/08/19 01:40:20;;;;;;;;;;;13.70;99.90;;;;;;5011782;28;19921;-80
2022/08/19 01:42:49;;;;;;;;;;;13.70;99.90;;;;;;5028721;28;19925;-80
2022/08/19 01:45:14;;;;;;;;;;;13.60;99.90;;;;;;5010843;28;20312;-80
2022/08/19 01:47:40;;;;;;;;;;;13.60;99.90;;;;;;5011745;28;20011;-80
2022/08/19 01:50:07;;;;;;;;;;;14.10;99.90;;;;;;4996114;28;20374;-79
2022/08/19 01:52:35;;;;;;;;;;;13.50;99.90;;;;;;5030161;28;19928;-80
2022/08/19 01:55:01;;;;;;;;;;;13.80;99.90;;;;;;4995781;28;19986;-80
2022/08/19 01:57:27;;;;;;;;;;;13.50;99.90;;;;;;5031416;28;20403;-80
2022/08/19 01:59:53;;;;;;;;;;;13.50;99.90;;;;;;5010836;28;20374;-80
2022/08/19 02:02:19;;;;;;;;;;;13.50;99.90;;;;;;5012654;28;19924;-80
2022/08/19 02:04:45;;;;;;;;;;;13.60;99.90;;;;;;5030913;28;20473;-80
2022/08/19 02:07:11;;;;;;;;;;;13.50;99.90;;;;;;4996499;28;19980;-80
2022/08/19 02:09:37;;;;;;;;;;;13.50;99.90;;;;;;5028634;28;19929;-80
2022/08/19 02:12:03;;;;;;;;;;;13.40;99.90;;;;;;5013506;28;20392;-79
2022/08/19 02:14:29;;;;;;;;;;;13.50;99.90;;;;;;4996655;28;19921;-80
2022/08/19 02:16:54;;;;;;;;;;;13.50;99.90;;;;;;4994909;28;19931;-80
2022/08/19 02:19:20;;;;;;;;;;;13.50;99.90;;;;;;5010953;28;19924;-80
2022/08/19 02:21:45;;;;;;;;;;;13.50;99.90;;;;;;4994812;28;19921;-80
2022/08/19 02:24:12;;;;;;;;;;;13.50;99.90;;;;;;5011470;28;19950;-80
2022/08/19 02:26:37;;;;;;;;;;;13.60;99.90;;;;;;5012105;28;19925;-80
2022/08/19 02:29:03;;;;;;;;;;;13.60;99.90;;;;;;5010786;28;20347;-80
2022/08/19 02:31:28;;;;;;;;;;;13.60;99.90;;;;;;4995079;28;19971;-81
2022/08/19 02:33:55;;;;;;;;;;;13.60;99.90;;;;;;5011296;28;19925;-81
2022/08/19 02:36:21;;;;;;;;;;;13.60;99.90;;;;;;4994156;28;20325;-81
2022/08/19 02:38:46;;;;;;;;;;;13.60;99.90;;;;;;5010892;28;20015;-81
2022/08/19 02:41:17;;;;;;;;;;;13.60;99.90;;;;;;5011792;28;19929;-81
2022/08/19 02:43:43;;;;;;;;;;;13.60;99.90;;;;;;5028398;28;19925;-82
2022/08/19 02:46:17;;;;;;;;;;;13.60;99.90;;;;;;5016389;28;20396;-81
2022/08/19 02:48:43;;;;;;;;;;;13.60;99.90;;;;;;5010861;28;19929;-81
2022/08/19 02:51:15;;;;;;;;;;;13.60;99.90;;;;;;5010731;28;19925;-81
2022/08/19 02:53:40;;;;;;;;;;;13.60;99.90;;;;;;4994616;28;20304;-81
2022/08/19 02:56:07;;;;;;;;;;;13.70;99.90;;;;;;5011010;28;19920;-82
2022/08/19 02:58:33;;;;;;;;;;;13.60;99.90;;;;;;4993894;28;19928;-82
2022/08/19 03:00:58;;;;;;;;;;;14.00;99.90;;;;;;5010646;28;19920;-82
2022/08/19 03:03:24;;;;;;;;;;;13.60;99.90;;;;;;4994786;28;19925;-82
2022/08/19 03:05:50;;;;;;;;;;;13.60;99.90;;;;;;5009945;28;20019;-80
2022/08/19 03:08:16;;;;;;;;;;;13.60;99.90;;;;;;5009797;28;19934;-81
2022/08/19 03:10:43;;;;;;;;;;;13.60;99.90;;;;;;4994775;28;19921;-82
2022/08/19 03:13:10;;;;;;;;;;;13.60;99.90;;;;;;5018297;28;20274;-88
2022/08/19 03:15:39;;;;;;;;;;;13.40;99.90;;;;;;4995221;28;19921;-85
2022/08/19 03:18:04;;;;;;;;;;;13.60;99.90;;;;;;5027326;28;19928;-87
2022/08/19 03:20:30;;;;;;;;;;;13.60;99.90;;;;;;4994927;28;19921;-83
2022/08/19 03:22:56;;;;;;;;;;;13.60;99.90;;;;;;5011932;28;20046;-84
2022/08/19 03:25:22;;;;;;;;;;;13.60;99.90;;;;;;5010945;28;20039;-84
2022/08/19 03:27:48;;;;;;;;;;;13.60;99.90;;;;;;5010278;28;19921;-85
2022/08/19 03:30:14;;;;;;;;;;;13.70;99.90;;;;;;5011290;28;19925;-87
2022/08/19 03:32:40;;;;;;;;;;;13.60;99.90;;;;;;5028611;28;19928;-87
2022/08/19 03:35:06;;;;;;;;;;;13.60;99.90;;;;;;5029324;28;19921;-87
2022/08/19 03:37:31;;;;;;;;;;;13.60;99.90;;;;;;5029937;28;19921;-87
2022/08/19 03:39:59;;;;;;;;;;;13.60;99.90;;;;;;5016949;28;20266;-86
2022/08/19 03:42:26;;;;;;;;;;;13.60;99.90;;;;;;5013603;28;20473;-84
2022/08/19 03:44:52;;;;;;;;;;;13.50;99.90;;;;;;5011875;28;19995;-83
2022/08/19 03:47:18;;;;;;;;;;;13.50;99.90;;;;;;5026199;28;20012;-87
2022/08/19 03:49:44;;;;;;;;;;;13.60;99.90;;;;;;4994714;28;19921;-88
2022/08/19 03:52:09;;;;;;;;;;;13.60;99.90;;;;;;5017411;28;19956;-88
2022/08/19 03:54:37;;;;;;;;;;;13.50;99.90;;;;;;5010130;28;19972;-82
2022/08/19 03:57:03;;;;;;;;;;;13.50;99.90;;;;;;5012557;28;20020;-88
2022/08/19 03:59:31;;;;;;;;;;;13.50;99.90;;;;;;5012943;28;19925;-87
2022/08/19 04:01:57;;;;;;;;;;;13.50;99.90;;;;;;4995819;28;19927;-87
2022/08/19 04:04:23;;;;;;;;;;;13.60;99.90;;;;;;5011538;28;20017;-87
2022/08/19 04:06:49;;;;;;;;;;;13.60;99.90;;;;;;5011686;28;20384;-89
2022/08/19 04:09:15;;;;;;;;;;;13.50;99.90;;;;;;5017894;28;19933;-88
2022/08/19 04:11:41;;;;;;;;;;;13.50;99.90;;;;;;4995268;28;19924;-88
2022/08/19 04:14:08;;;;;;;;;;;13.60;99.90;;;;;;5011163;28;19921;-88
2022/08/19 04:16:34;;;;;;;;;;;13.50;99.90;;;;;;4994162;28;19921;-87
2022/08/19 04:19:01;;;;;;;;;;;13.60;99.90;;;;;;4994281;28;20008;-87
2022/08/19 04:21:27;;;;;;;;;;;13.50;99.90;;;;;;4997914;28;19928;-87
2022/08/19 04:23:53;;;;;;;;;;;13.50;99.90;;;;;;5014388;28;20393;-87
2022/08/19 04:26:31;;;;;;;;;;;13.50;99.90;;;;;;4998518;28;20023;-87
2022/08/19 04:28:58;;;;;;;;;;;13.50;99.90;;;;;;4996233;28;19921;-88
2022/08/19 04:31:25;;;;;;;;;;;13.50;99.90;;;;;;4997887;28;20513;-87
2022/08/19 04:33:53;;;;;;;;;;;13.50;99.90;;;;;;4996229;28;19932;-89
2022/08/19 04:36:20;;;;;;;;;;;13.50;99.90;;;;;;5001466;28;19921;-88
2022/08/19 04:38:47;;;;;;;;;;;13.50;99.90;;;;;;5002915;28;19921;-87
2022/08/19 04:43:56;;;;;;;;;;;13.50;99.90;;;;;;5031467;28;19928;-89
2022/08/19 04:46:22;;;;;;;;;;;13.50;99.90;;;;;;5035876;28;19905;-89
2022/08/19 04:48:47;;;;;;;;;;;13.60;99.90;;;;;;5026113;28;20039;-89
2022/08/19 04:51:13;;;;;;;;;;;13.70;99.90;;;;;;5020098;28;19913;-88
2022/08/19 04:53:40;;;;;;;;;;;13.60;99.90;;;;;;5034747;28;19947;-87
2022/08/19 04:56:10;;;;;;;;;;;13.60;99.90;;;;;;5041124;28;19909;-89
2022/08/19 04:58:36;;;;;;;;;;;13.60;99.90;;;;;;5030569;28;20004;-88
2022/08/19 05:01:02;;;;;;;;;;;13.60;99.90;;;;;;5022052;28;19924;-89
2022/08/19 05:03:30;;;;;;;;;;;13.80;99.90;;;;;;5014509;28;19928;-87
2022/08/19 05:05:56;;;;;;;;;;;13.70;99.90;;;;;;4997702;28;19964;-87
2022/08/19 05:08:21;;;;;;;;;;;13.70;99.90;;;;;;4993632;28;20053;-87
2022/08/19 05:10:48;;;;;;;;;;;13.80;99.90;;;;;;5010826;28;20280;-87
2022/08/19 05:13:14;;;;;;;;;;;14.40;99.90;;;;;;5010497;28;19925;-87
2022/08/19 05:15:41;;;;;;;;;;;13.80;99.90;;;;;;5009828;28;20394;-88
2022/08/19 05:23:35;;;;;;;;;;;14.20;99.90;;;;;;5010946;28;19975;-89
2022/08/19 05:26:00;;;;;;;;;;;14.60;99.90;;;;;;5010301;28;20020;-88
2022/08/19 05:28:27;;;;;;;;;;;14.50;99.90;;;;;;5010706;28;19929;-88
2022/08/19 05:30:55;;;;;;;;;;;14.50;99.90;;;;;;5009546;28;20393;-89
2022/08/19 05:33:21;;;;;;;;;;;14.60;99.90;;;;;;5008860;28;20135;-83
2022/08/19 05:35:48;;;;;;;;;;;14.80;99.90;;;;;;4994225;28;20016;-83
2022/08/19 05:38:13;;;;;;;;;;;14.80;99.90;;;;;;4994374;28;19926;-82
2022/08/19 05:40:39;;;;;;;;;;;14.80;99.90;;;;;;5010715;28;19980;-85
2022/08/19 05:43:08;;;;;;;;;;;15.10;99.90;;;;;;5012338;28;19961;-84
2022/08/19 05:45:38;;;;;;;;;;;15.00;99.90;;;;;;5011400;28;19922;-85
2022/08/19 05:48:03;;;;;;;;;;;15.10;99.90;;;;;;5008104;28;20369;-83
2022/08/19 05:50:29;;;;;;;;;;;15.20;99.90;;;;;;5010640;28;19925;-86
2022/08/19 05:52:55;;;;;;;;;;;15.30;99.90;;;;;;4993725;28;19932;-87
2022/08/19 05:55:22;;;;;;;;;;;15.30;99.90;;;;;;5011712;28;19925;-84
2022/08/19 05:57:48;;;;;;;;;;;15.40;99.90;;;;;;5011056;28;19928;-83
2022/08/19 06:00:14;;;;;;;;;;;15.50;99.90;;;;;;4994737;28;19921;-85
2022/08/19 06:02:40;;;;;;;;;;;15.60;99.90;;;;;;4995119;28;19925;-83
2022/08/19 06:05:08;;;;;;;;;;;15.70;99.90;;;;;;5011799;28;19997;-86
2022/08/19 06:07:38;;;;;;;;;;;15.70;99.90;;;;;;5010182;28;20444;-90
2022/08/19 06:10:08;;;;;;;;;;;15.80;99.90;;;;;;5011285;28;19928;-89
2022/08/19 06:12:34;;;;;;;;;;;15.80;99.90;;;;;;5010969;28;20426;-82
2022/08/19 06:15:01;;;;;;;;;;;16.00;99.90;;;;;;4992810;28;20314;-87
2022/08/19 06:17:28;;;;;;;;;;;16.00;99.90;;;;;;5010224;28;19921;-87
2022/08/19 06:19:54;;;;;;;;;;;16.10;99.90;;;;;;5033177;28;19985;-83
2022/08/19 06:22:20;;;;;;;;;;;16.10;99.90;;;;;;5012365;28;19957;-90
2022/08/19 06:24:45;;;;;;;;;;;16.30;99.90;;;;;;4996049;28;19933;-85
2022/08/19 06:27:11;;;;;;;;;;;16.30;99.90;;;;;;5011305;28;20003;-85
2022/08/19 06:29:37;;;;;;;;;;;16.40;99.90;;;;;;4993562;28;19921;-84
2022/08/19 06:32:03;;;;;;;;;;;16.50;99.90;;;;;;5024568;28;19920;-83
2022/08/19 06:34:32;;;;;;;;;;;16.60;99.90;;;;;;5033880;28;20135;-84
2022/08/19 06:37:02;;;;;;;;;;;16.70;99.90;;;;;;5017060;28;20019;-85
2022/08/19 06:39:29;;;;;;;;;;;17.40;99.90;;;;;;5020267;28;20290;-84
2022/08/19 06:41:56;;;;;;;;;;;17.50;99.90;;;;;;5020428;28;20374;-88
2022/08/19 06:44:24;;;;;;;;;;;17.50;99.90;;;;;;5006021;28;19932;-85
2022/08/19 06:46:50;;;;;;;;;;;17.50;99.90;;;;;;4991998;28;19936;-81
2022/08/19 06:49:16;;;;;;;;;;;17.50;99.90;;;;;;5007621;28;19933;-85
2022/08/19 06:51:47;;;;;;;;;;;17.70;99.90;;;;;;5008560;28;19921;-84
2022/08/19 06:54:13;;;;;;;;;;;17.60;99.90;;;;;;4991880;28;19921;-83
2022/08/19 06:56:39;;;;;;;;;;;17.60;99.90;;;;;;5009776;28;19931;-88
2022/08/19 06:59:07;;;;;;;;;;;17.70;99.90;;;;;;5008296;28;19925;-84
2022/08/19 07:01:37;;;;;;;;;;;17.70;99.90;;;;;;5008201;28;20650;-83
2022/08/19 07:04:03;;;;;;;;;;;17.80;99.90;;;;;;5008964;28;20044;-89
2022/08/19 07:06:30;;;;;;;;;;;17.90;99.90;;;;;;5009108;28;19928;-87
2022/08/19 07:08:57;;;;;;;;;;;17.90;99.90;;;;;;4992609;28;19947;-91
2022/08/19 07:11:23;;;;;;;;;;;18.00;99.90;;;;;;5009116;28;20493;-86
2022/08/19 07:13:49;;;;;;;;;;;18.00;99.90;;;;;;5008873;28;19936;-85
2022/08/19 07:16:16;;;;;;;;;;;18.10;99.90;;;;;;5008213;28;19925;-91
2022/08/19 07:18:42;;;;;;;;;;;18.20;99.90;;;;;;5008156;28;19980;-91
2022/08/19 07:21:12;;;;;;;;;;;18.30;99.90;;;;;;5008505;28;19925;-88
2022/08/19 07:23:38;;;;;;;;;;;18.40;99.90;;;;;;4992696;28;20021;-88
2022/08/19 07:26:09;;;;;;;;;;;18.50;99.90;;;;;;5013256;28;20015;-89
2022/08/19 07:28:38;;;;;;;;;;;18.70;99.90;;;;;;5015417;28;19943;-89
2022/08/19 07:31:07;;;;;;;;;;;19.00;99.90;;;;;;5010132;28;19952;-88
2022/08/19 07:33:36;;;;;;;;;;;19.40;99.90;;;;;;5008861;28;19921;-84
2022/08/19 07:36:06;;;;;;;;;;;19.70;99.90;;;;;;4991707;28;20432;-88
2022/08/19 07:38:31;;;;;;;;;;;20.00;99.90;;;;;;4992113;28;20458;-91
2022/08/19 07:40:57;;;;;;;;;;;20.40;99.90;;;;;;4993498;28;19922;-92
2022/08/19 07:43:26;;;;;;;;;;;20.70;99.90;;;;;;4993974;28;20370;-91
2022/08/19 07:45:55;;;;;;;;;;;21.00;99.90;;;;;;4990042;28;19945;-82
2022/08/19 07:48:24;;;;;;;;;;;21.40;99.90;;;;;;4992294;28;20374;-88
2022/08/19 07:50:50;;;;;;;;;;;21.70;99.90;;;;;;4993156;28;20295;-93
2022/08/19 07:53:16;;;;;;;;;;;21.90;99.90;;;;;;5009527;28;20008;-85
2022/08/19 07:55:44;;;;;;;;;;;22.30;99.90;;;;;;5014132;28;19988;-89
2022/08/19 07:58:12;;;;;;;;;;;22.70;99.90;;;;;;4996299;28;19926;-85
2022/08/19 08:00:49;;;;;;;;;;;23.00;99.90;;;;;;5026782;28;20029;-95
2022/08/19 08:03:18;;;;;;;;;;;23.40;99.90;;;;;;5026964;28;20012;-82
2022/08/19 08:11:12;;;;;;;;;;;24.00;99.90;;;;;;5009454;28;19983;-90
2022/08/19 08:13:40;;;;;;;;;;;24.10;99.90;;;;;;5022454;28;19928;-88
2022/08/19 08:16:11;;;;;;;;;;;24.30;99.90;;;;;;5012984;28;19926;-90
2022/08/19 08:18:41;;;;;;;;;;;24.50;99.90;;;;;;5013612;28;19965;-89
2022/08/19 08:21:10;;;;;;;;;;;24.70;99.90;;;;;;4995555;28;19976;-91
2022/08/19 08:23:35;;;;;;;;;;;24.80;99.90;;;;;;5013800;28;20286;-95
2022/08/19 08:26:01;;;;;;;;;;;25.00;99.90;;;;;;4996249;28;19921;-90
2022/08/19 08:28:28;;;;;;;;;;;25.20;99.90;;;;;;5012462;28;19921;-90
2022/08/19 08:30:54;;;;;;;;;;;25.50;99.90;;;;;;4995889;28;19922;-89
2022/08/19 08:33:23;;;;;;;;;;;25.60;99.90;;;;;;5011703;28;20013;-88
2022/08/19 08:35:49;;;;;;;;;;;25.80;99.90;;;;;;4992742;28;19922;-89
2022/08/19 08:38:15;;;;;;;;;;;25.90;99.90;;;;;;4995446;28;19991;-88
2022/08/19 08:40:48;;;;;;;;;;;25.90;99.90;;;;;;5010265;28;19968;-87
2022/08/19 08:43:32;;;;;;;;;;;26.00;99.90;;;;;;4994239;28;20015;-87
2022/08/19 08:46:13;;;;;;;;;;;26.00;99.90;;;;;;4995523;28;19975;-86
2022/08/19 08:48:46;;;;;;;;;;;26.00;99.90;;;;;;4995166;28;19921;-86
2022/08/19 08:51:15;;;;;;;;;;;26.20;99.90;;;;;;4995069;28;19926;-87
2022/08/19 08:53:42;;;;;;;;;;;26.30;99.90;;;;;;5012664;28;20319;-85
2022/08/19 08:56:12;;;;;;;;;;;26.50;99.90;;;;;;5011354;28;19925;-89
2022/08/19 08:58:57;;;;;;;;;;;26.60;99.90;;;;;;5014679;28;19929;-89
2022/08/19 09:01:23;;;;;;;;;;;26.70;99.90;;;;;;4995563;28;19921;-90
2022/08/19 09:03:49;;;;;;;;;;;26.90;99.90;;;;;;5012234;28;19925;-90
2022/08/19 09:06:17;;;;;;;;;;;27.10;99.90;;;;;;4994171;28;19948;-87
2022/08/19 09:08:46;;;;;;;;;;;27.30;99.90;;;;;;4994207;28;19979;-89
2022/08/19 09:11:19;;;;;;;;;;;27.40;99.90;;;;;;4993729;28;19968;-86
2022/08/19 09:13:53;;;;;;;;;;;27.50;99.90;;;;;;5014671;28;20019;-87
2022/08/19 09:16:21;;;;;;;;;;;27.70;99.90;;;;;;5009155;28;20119;-86
2022/08/19 09:18:54;;;;;;;;;;;27.70;99.90;;;;;;4995773;28;19926;-88
2022/08/19 09:21:20;;;;;;;;;;;27.80;99.90;;;;;;5013489;28;20298;-86
2022/08/19 09:23:46;;;;;;;;;;;27.80;99.90;;;;;;5017930;28;19926;-84
2022/08/19 09:26:15;;;;;;;;;;;27.90;99.90;;;;;;5014102;28;19934;-84
2022/08/19 09:28:44;;;;;;;;;;;28.00;99.90;;;;;;5011001;28;20000;-89
2022/08/19 09:31:11;;;;;;;;;;;28.10;99.90;;;;;;5010466;28;19929;-90
2022/08/19 09:33:37;;;;;;;;;;;28.10;99.90;;;;;;5010266;28;19925;-92
2022/08/19 09:36:09;;;;;;;;;;;28.30;99.90;;;;;;5014578;28;19929;-91
2022/08/19 09:38:36;;;;;;;;;;;28.40;99.90;;;;;;5007952;28;19925;-90
2022/08/19 09:41:04;;;;;;;;;;;28.50;99.90;;;;;;4993753;28;19921;-88
2022/08/19 09:43:30;;;;;;;;;;;28.50;99.90;;;;;;4994311;28;19932;-85
2022/08/19 09:45:56;;;;;;;;;;;28.50;99.90;;;;;;4992842;28;19929;-83
2022/08/19 09:48:22;;;;;;;;;;;28.60;99.90;;;;;;5016112;28;20052;-87
2022/08/19 09:50:47;;;;;;;;;;;28.50;99.90;;;;;;5010554;28;20368;-90
2022/08/19 09:53:13;;;;;;;;;;;28.50;99.90;;;;;;4993454;28;20366;-88
2022/08/19 09:55:42;;;;;;;;;;;28.50;99.90;;;;;;5011161;28;20353;-87
2022/08/19 09:58:08;;;;;;;;;;;28.50;99.90;;;;;;5008420;28;19948;-88
2022/08/19 10:00:36;;;;;;;;;;;28.40;99.90;;;;;;5009544;28;20255;-88
2022/08/19 10:03:02;;;;;;;;;;;28.50;99.90;;;;;;4998686;28;20757;-89
2022/08/19 10:08:11;;;;;;;;;;;28.60;99.90;;;;;;5033734;28;19967;-93
2022/08/19 10:10:37;;;;;;;;;;;28.70;99.90;;;;;;5014938;28;19921;-89
2022/08/19 10:13:04;;;;;;;;;;;28.80;99.90;;;;;;5048281;28;19905;-88
2022/08/19 10:15:29;;;;;;;;;;;28.80;99.90;;;;;;5013565;28;19921;-88
2022/08/19 10:17:55;;;;;;;;;;;28.90;99.90;;;;;;5017606;28;19925;-91
2022/08/19 10:20:22;;;;;;;;;;;28.90;99.90;;;;;;5006199;28;19925;-87
2022/08/19 10:22:48;;;;;;;;;;;28.90;99.90;;;;;;5014245;28;19920;-87
2022/08/19 10:25:16;;;;;;;;;;;28.90;99.90;;;;;;5020749;28;19936;-86
2022/08/19 10:27:42;;;;;;;;;;;29.00;99.90;;;;;;5030763;28;20282;-92
2022/08/19 10:30:08;;;;;;;;;;;29.00;99.90;;;;;;5016177;28;19928;-87
2022/08/19 10:32:33;;;;;;;;;;;29.00;99.90;;;;;;4997820;28;19921;-92
2022/08/19 10:35:00;;;;;;;;;;;29.00;99.90;;;;;;5013222;28;20405;-92
2022/08/19 10:37:26;;;;;;;;;;;28.80;99.90;;;;;;4993656;28;20050;-92
2022/08/19 10:39:51;;;;;;;;;;;28.40;99.90;;;;;;5032178;28;20434;-92
2022/08/19 10:42:18;;;;;;;;;;;28.20;99.90;;;;;;4993843;28;19924;-89
2022/08/19 10:44:44;;;;;;;;;;;28.20;99.90;;;;;;5026656;28;19983;-83
2022/08/19 10:47:10;;;;;;;;;;;28.00;99.90;;;;;;5011341;28;19964;-84
2022/08/19 10:52:33;;;;;;;;;;;28.10;99.90;;;;;;5023198;28;19979;-84
2022/08/19 10:52:33;;;;;;;;;;;28.20;99.90;;;;;;5011830;28;19964;-89
2022/08/19 10:57:47;;;;;;;;;;;28.60;99.90;;;;;;5017352;28;20309;-81
2022/08/19 11:00:13;;;;;;;;;;;28.60;99.90;;;;;;4993059;28;19931;-88
2022/08/19 11:02:39;;;;;;;;;;;28.30;99.90;;;;;;4991996;28;19921;-88
2022/08/19 11:05:05;;;;;;;;;;;28.00;99.90;;;;;;4995097;28;19955;-90
2022/08/19 11:07:33;;;;;;;;;;;27.80;99.90;;;;;;4989682;28;19925;-92
2022/08/19 11:10:12;;;;;;;;;;;27.80;99.90;;;;;;4985063;28;20633;-87
2022/08/19 11:13:01;;;;;;;;;;;28.10;99.90;;;;;;5004288;28;19928;-91
2022/08/19 11:15:42;;;;;;;;;;;28.30;99.90;;;;;;5003691;28;19928;-92
2022/08/19 11:18:26;;;;;;;;;;;28.30;99.90;;;;;;5007481;28;19925;-86
2022/08/19 11:21:16;;;;;;;;;;;28.80;99.90;;;;;;5007853;28;19921;-87
2022/08/19 11:23:43;;;;;;;;;;;29.00;99.90;;;;;;4992510;28;19947;-90
2022/08/19 11:26:17;;;;;;;;;;;29.30;99.90;;;;;;4982229;28;20293;-89
2022/08/19 11:28:42;;;;;;;;;;;29.40;99.90;;;;;;5019808;28;20016;-86
2022/08/19 11:31:16;;;;;;;;;;;29.50;99.90;;;;;;5008202;28;20050;-91
2022/08/19 11:33:42;;;;;;;;;;;29.40;99.90;;;;;;5007924;28;19967;-91
2022/08/19 11:36:08;;;;;;;;;;;29.20;99.90;;;;;;5011980;28;19924;-88
2022/08/19 11:38:35;;;;;;;;;;;29.10;99.90;;;;;;5014791;28;19932;-87
2022/08/19 11:41:02;;;;;;;;;;;28.90;99.90;;;;;;5009775;28;20248;-90
2022/08/19 11:43:28;;;;;;;;;;;28.80;99.90;;;;;;4998678;28;19943;-89
2022/08/19 11:45:55;;;;;;;;;;;28.50;99.90;;;;;;5008250;28;20007;-91
2022/08/19 11:48:22;;;;;;;;;;;28.30;99.90;;;;;;5009495;28;19936;-87
2022/08/19 11:50:48;;;;;;;;;;;28.40;99.90;;;;;;5008743;28;19929;-89
2022/08/19 11:53:14;;;;;;;;;;;28.60;99.90;;;;;;5005473;28;19932;-90
2022/08/19 11:55:40;;;;;;;;;;;28.70;99.90;;;;;;4991155;28;19925;-90
2022/08/19 11:58:07;;;;;;;;;;;29.00;99.90;;;;;;5009557;28;19925;-90
2022/08/19 12:00:35;;;;;;;;;;;29.20;99.90;;;;;;5002020;28;19925;-83
2022/08/19 12:03:01;;;;;;;;;;;29.30;99.90;;;;;;5020306;28;19940;-88
2022/08/19 12:05:27;;;;;;;;;;;29.40;99.90;;;;;;5010235;28;19925;-88
2022/08/19 12:07:54;;;;;;;;;;;29.40;99.90;;;;;;4988059;28;20629;-89
2022/08/19 12:10:20;;;;;;;;;;;29.40;99.90;;;;;;5001050;28;20383;-86
2022/08/19 12:12:45;;;;;;;;;;;29.30;99.90;;;;;;4985868;28;19984;-88
2022/08/19 12:15:11;;;;;;;;;;;29.50;99.90;;;;;;5000461;28;20028;-86
2022/08/19 12:17:37;;;;;;;;;;;29.30;99.90;;;;;;4992673;28;20382;-88
2022/08/19 12:20:03;;;;;;;;;;;29.10;99.90;;;;;;5002631;28;19933;-90
2022/08/19 12:22:29;;;;;;;;;;;28.80;99.90;;;;;;4999165;28;20395;-87
2022/08/19 12:24:55;;;;;;;;;;;28.50;99.90;;;;;;4981670;28;19936;-90
2022/08/19 12:27:20;;;;;;;;;;;28.30;99.90;;;;;;4999959;28;19975;-91
2022/08/19 12:29:46;;;;;;;;;;;28.10;99.90;;;;;;4995015;28;19964;-91
2022/08/19 12:32:12;;;;;;;;;;;27.80;99.90;;;;;;4996425;28;19926;-88
2022/08/19 12:34:38;;;;;;;;;;;27.50;99.90;;;;;;4996935;28;19945;-87
2022/08/19 12:37:08;;;;;;;;;;;27.20;99.90;;;;;;5000429;28;19926;-91
2022/08/19 12:39:34;;;;;;;;;;;27.00;99.90;;;;;;4997915;28;19967;-90
2022/08/19 12:42:00;;;;;;;;;;;26.90;99.90;;;;;;5002140;28;19925;-91
2022/08/19 12:44:26;;;;;;;;;;;26.80;99.90;;;;;;5016559;28;20337;-82
2022/08/19 12:46:52;;;;;;;;;;;26.90;99.90;;;;;;4993540;28;19925;-87
2022/08/19 12:49:17;;;;;;;;;;;26.70;99.90;;;;;;4994287;28;19965;-82
2022/08/19 12:51:43;;;;;;;;;;;26.60;99.90;;;;;;4980475;28;20099;-84
2022/08/19 12:54:08;;;;;;;;;;;26.70;99.90;;;;;;4998461;28;20269;-87
2022/08/19 12:56:35;;;;;;;;;;;26.60;99.90;;;;;;4983810;28;20374;-86
2022/08/19 12:59:02;;;;;;;;;;;26.60;99.90;;;;;;5008532;28;21422;-86
2022/08/19 13:01:32;;;;;;;;;;;26.80;99.90;;;;;;5012756;28;20087;-87
2022/08/19 13:03:58;;;;;;;;;;;26.80;99.90;;;;;;5011307;28;19921;-86
2022/08/19 13:06:24;;;;;;;;;;;26.90;99.90;;;;;;4998596;28;19969;-85
2022/08/19 13:08:49;;;;;;;;;;;27.00;99.90;;;;;;5012307;28;19925;-88
2022/08/19 13:11:17;;;;;;;;;;;27.00;99.90;;;;;;5001066;28;19972;-86
2022/08/19 13:13:43;;;;;;;;;;;27.00;99.90;;;;;;4999773;28;20306;-85
2022/08/19 13:16:10;;;;;;;;;;;26.90;99.90;;;;;;4998900;28;20225;-89
2022/08/19 13:18:38;;;;;;;;;;;26.70;99.90;;;;;;5024188;28;20016;-88
2022/08/19 13:21:07;;;;;;;;;;;26.50;99.90;;;;;;5003964;28;19926;-88
2022/08/19 13:23:34;;;;;;;;;;;26.30;99.90;;;;;;4989893;28;20019;-83
2022/08/19 13:26:01;;;;;;;;;;;26.20;99.90;;;;;;4986150;28;19936;-89
2022/08/19 13:33:10;;;;;;;;;;;26.10;99.90;;;;;;4992756;28;20517;-89
2022/08/19 13:34:04;;;;;;;;;;;25.80;99.90;;;;;;5009407;28;19932;-86
2022/08/19 13:36:31;;;;;;;;;;;25.60;99.90;;;;;;4997143;28;19924;-89
2022/08/19 13:38:57;;;;;;;;;;;25.50;99.90;;;;;;5031086;28;20373;-85
2022/08/19 13:41:23;;;;;;;;;;;25.40;99.90;;;;;;5003587;28;19929;-85
2022/08/19 13:43:48;;;;;;;;;;;25.30;99.90;;;;;;5004834;28;19948;-88
2022/08/19 13:46:14;;;;;;;;;;;25.20;99.90;;;;;;5021686;28;20374;-87
2022/08/19 13:48:40;;;;;;;;;;;25.20;99.90;;;;;;5004845;28;20542;-89
2022/08/19 13:51:09;;;;;;;;;;;25.00;99.90;;;;;;5000180;28;19972;-89
2022/08/19 13:53:39;;;;;;;;;;;25.00;99.90;;;;;;5004127;28;19929;-89
2022/08/19 13:56:08;;;;;;;;;;;25.00;99.90;;;;;;4988665;28;20305;-87
2022/08/19 13:58:33;;;;;;;;;;;25.00;99.90;;;;;;5005262;28;19925;-78
2022/08/19 14:00:59;;;;;;;;;;;25.00;99.90;;;;;;4998935;28;20018;-83
2022/08/19 14:03:25;;;;;;;;;;;25.10;99.90;;;;;;4994500;28;20467;-82
2022/08/19 14:05:51;;;;;;;;;;;25.10;99.90;;;;;;4993330;28;19933;-83
2022/08/19 14:08:16;;;;;;;;;;;25.10;99.90;;;;;;5007273;28;20541;-83
2022/08/19 14:10:44;;;;;;;;;;;25.20;99.90;;;;;;4978671;28;19925;-83
2022/08/19 14:13:10;;;;;;;;;;;25.40;99.90;;;;;;4994476;28;19929;-83
2022/08/19 14:15:37;;;;;;;;;;;25.40;99.90;;;;;;4996146;28;19983;-84
2022/08/19 14:18:02;;;;;;;;;;;25.40;99.90;;;;;;5014130;28;19940;-83
2022/08/19 14:20:28;;;;;;;;;;;25.40;99.90;;;;;;4986894;28;19928;-85
2022/08/19 14:22:54;;;;;;;;;;;25.40;99.90;;;;;;5002655;28;20402;-85
2022/08/19 14:25:22;;;;;;;;;;;25.30;99.90;;;;;;5015843;28;19988;-86
2022/08/19 14:27:48;;;;;;;;;;;25.30;99.90;;;;;;5000802;28;19950;-85
2022/08/19 14:30:15;;;;;;;;;;;25.20;99.90;;;;;;5016931;28;20306;-86
2022/08/19 14:32:42;;;;;;;;;;;25.20;99.90;;;;;;5001765;28;19935;-86
2022/08/19 14:35:09;;;;;;;;;;;25.20;99.90;;;;;;5002430;28;19925;-81
2022/08/19 14:37:34;;;;;;;;;;;25.30;99.90;;;;;;5004509;28;19940;-81